Mount Carmel, Utah
Current Conditions -  °F | °C
As of 10:35 AM on Tuesday 21 Oct 2014 (Local Time) from KAZC Reporting Station
Clear Clear  
Wind Chill: 68°   Ceiling: Unl
Heat Index: 68°   Visibility: 10mi
Dew Point: 44°   Wind: 5mph
Humidity: 41%   Direction: 140°SE
Pressure: 30.09"   Gusts: NA
Location:  37.25°N, 112.67°W
Report Text: KAZC 211635Z AUTO 14004KT 10SM CLR 20/07 A3009 RMK AO2 T02010066
Loading
Personal Weather Stations






























Interactive Weather Map
Tropical Storm Tracking
New forecast layout! Learn more

10-Day Weather Forecast

Advertisements
Track Severe Weather on mobile